Time;durP1;ratioP1;P1;durP2;ratioP2;P2;SDS_P1;SDS_P2;PMS_P1;PMS_P2;Temp;Humidity;BMP_temperature;BMP_pressure;BME280_temperature;BME280_humidity;BME280_pressure;Samples;Min_cycle;Max_cycle;Signal;HPM_P1;HPM_P2
2020/12/17 00:00:50;;;;;;;9.82;7.07;;;;;;;;;;4300903;33;20179;-95
2020/12/17 00:03:25;;;;;;;10.27;7.93;;;;;;;;;;4295694;33;20187;-94
2020/12/17 00:06:04;;;;;;;9.80;7.75;;;;;;;;;;4305440;33;20148;-94
2020/12/17 00:08:41;;;;;;;12.05;7.62;;;;;;;;;;4310610;33;20144;-89
2020/12/17 00:11:25;;;;;;;12.23;8.60;;;;;;;;;;4306596;33;20238;-91
2020/12/17 00:14:12;;;;;;;;;;;;;;;;;;;;;
2020/12/17 00:16:46;;;;;;;10.38;7.07;;;;;;;;;;4340853;33;20159;-95
2020/12/17 00:19:23;;;;;;;9.52;7.18;;;;;;;;;;4320213;33;20183;-94
2020/12/17 00:22:05;;;;;;;8.63;7.22;;;;;;;;;;4332789;33;20181;-95
2020/12/17 00:24:35;;;;;;;10.85;7.45;;;;;;;;;;4332483;33;20152;-95
2020/12/17 00:27:09;;;;;;;10.73;8.05;;;;;;;;;;4323568;33;20148;-94
2020/12/17 00:29:49;;;;;;;9.80;7.68;;;;;;;;;;4338999;33;20148;-94
2020/12/17 00:32:31;;;;;;;9.85;7.45;;;;;;;;;;4324563;33;20167;-94
2020/12/17 00:35:12;;;;;;;9.52;7.28;;;;;;;;;;4337239;33;20155;-95
2020/12/17 00:37:51;;;;;;;10.23;7.62;;;;;;;;;;4323900;33;20156;-94
2020/12/17 00:40:29;;;;;;;10.48;7.07;;;;;;;;;;4320361;33;20179;-94
2020/12/17 00:43:03;;;;;;;10.80;7.30;;;;;;;;;;4320564;33;20178;-95
2020/12/17 00:45:33;;;;;;;11.15;7.53;;;;;;;;;;4326747;33;20131;-95
2020/12/17 00:48:17;;;;;;;9.25;7.72;;;;;;;;;;4345020;33;20160;-94
2020/12/17 00:50:50;;;;;;;9.85;7.45;;;;;;;;;;4332715;33;20160;-95
2020/12/17 00:53:32;;;;;;;8.50;6.55;;;;;;;;;;4331431;33;20285;-95
2020/12/17 00:56:06;;;;;;;8.60;7.35;;;;;;;;;;4331568;33;20159;-95
2020/12/17 00:58:43;;;;;;;10.38;7.82;;;;;;;;;;4318799;33;20597;-95
2020/12/17 01:01:16;;;;;;;10.80;7.20;;;;;;;;;;4331164;33;20262;-95
2020/12/17 01:03:49;;;;;;;9.50;7.60;;;;;;;;;;4332987;33;20253;-95
2020/12/17 01:06:23;;;;;;;9.10;7.35;;;;;;;;;;4344730;33;20190;-95
2020/12/17 01:09:00;;;;;;;13.32;7.35;;;;;;;;;;4333787;33;20140;-95
2020/12/17 01:11:39;;;;;;;11.57;8.13;;;;;;;;;;4334412;33;20151;-95
2020/12/17 01:14:25;;;;;;;11.07;7.78;;;;;;;;;;4335506;33;20170;-95
2020/12/17 01:17:05;;;;;;;10.30;7.55;;;;;;;;;;4337008;33;20262;-94
2020/12/17 01:19:39;;;;;;;9.27;7.22;;;;;;;;;;4338659;33;20553;-93
2020/12/17 01:22:13;;;;;;;11.43;8.00;;;;;;;;;;4336389;33;20155;-94
2020/12/17 01:24:50;;;;;;;11.30;7.55;;;;;;;;;;4336348;33;20226;-93
2020/12/17 01:27:29;;;;;;;9.73;7.30;;;;;;;;;;4336392;33;20151;-94
2020/12/17 01:30:05;;;;;;;10.63;8.05;;;;;;;;;;4334873;33;20170;-94
2020/12/17 01:32:40;;;;;;;10.68;7.47;;;;;;;;;;4333980;33;20534;-94
2020/12/17 01:35:19;;;;;;;11.88;7.47;;;;;;;;;;4333181;33;20230;-93
2020/12/17 01:37:53;;;;;;;9.63;7.57;;;;;;;;;;4333351;33;20278;-93
2020/12/17 01:40:32;;;;;;;11.20;8.23;;;;;;;;;;4333108;33;20569;-92
2020/12/17 01:43:14;;;;;;;11.45;8.18;;;;;;;;;;4332296;33;20243;-92
2020/12/17 01:45:51;;;;;;;10.52;8.13;;;;;;;;;;4332939;33;20598;-92
2020/12/17 01:48:25;;;;;;;12.07;8.35;;;;;;;;;;4332417;33;20216;-91
2020/12/17 01:51:10;;;;;;;9.73;7.28;;;;;;;;;;4344176;33;20568;-90
2020/12/17 01:53:53;;;;;;;;;;;;;;;;;;;;;
2020/12/17 01:56:38;;;;;;;11.23;8.10;;;;;;;;;;4345409;33;20491;-89
2020/12/17 01:59:12;;;;;;;13.15;8.35;;;;;;;;;;4331910;33;20174;-88
2020/12/17 02:01:45;;;;;;;11.40;8.27;;;;;;;;;;4331435;33;20664;-88
2020/12/17 02:04:17;;;;;;;11.90;7.43;;;;;;;;;;4331201;33;20164;-87
2020/12/17 02:06:48;;;;;;;10.30;7.90;;;;;;;;;;4331343;33;20179;-87
2020/12/17 02:09:14;;;;;;;12.27;8.10;;;;;;;;;;4345828;33;20131;-87
2020/12/17 02:11:42;;;;;;;12.77;8.13;;;;;;;;;;4333850;33;20201;-86
2020/12/17 02:14:16;;;;;;;12.40;8.13;;;;;;;;;;4333798;33;20156;-86
2020/12/17 02:16:49;;;;;;;11.65;8.20;;;;;;;;;;4333925;33;20174;-86
2020/12/17 02:19:15;;;;;;;13.35;8.90;;;;;;;;;;4334370;33;20626;-86
2020/12/17 02:21:43;;;;;;;13.00;9.10;;;;;;;;;;4346238;33;20159;-87
2020/12/17 02:24:12;;;;;;;12.60;9.18;;;;;;;;;;4334405;33;20167;-85
2020/12/17 02:26:40;;;;;;;12.35;8.48;;;;;;;;;;4333821;33;20167;-86
2020/12/17 02:29:10;;;;;;;11.52;8.35;;;;;;;;;;4347295;33;20620;-86
2020/12/17 02:31:36;;;;;;;12.18;8.85;;;;;;;;;;4334167;33;20156;-85
2020/12/17 02:34:07;;;;;;;13.45;9.02;;;;;;;;;;4333950;33;20596;-85
2020/12/17 02:36:55;;;;;;;12.98;9.00;;;;;;;;;;4334209;33;20194;-85
2020/12/17 02:39:31;;;;;;;11.12;8.27;;;;;;;;;;4347439;33;20143;-85
2020/12/17 02:41:56;;;;;;;11.88;8.38;;;;;;;;;;4347014;33;20182;-85
2020/12/17 02:44:22;;;;;;;11.27;7.93;;;;;;;;;;4345939;33;20274;-85
2020/12/17 02:46:47;;;;;;;11.25;8.13;;;;;;;;;;4333730;33;20160;-85
2020/12/17 02:49:15;;;;;;;13.23;8.90;;;;;;;;;;4349144;33;20140;-84
2020/12/17 02:51:40;;;;;;;14.18;9.18;;;;;;;;;;4337437;33;20164;-84
2020/12/17 02:54:09;;;;;;;11.15;8.20;;;;;;;;;;4335566;33;20217;-84
2020/12/17 02:56:34;;;;;;;14.52;9.75;;;;;;;;;;4336050;33;20611;-84
2020/12/17 02:58:59;;;;;;;12.52;9.57;;;;;;;;;;4336147;33;20151;-84
2020/12/17 03:01:27;;;;;;;12.75;8.93;;;;;;;;;;4345707;33;20160;-84
2020/12/17 03:03:55;;;;;;;14.05;9.00;;;;;;;;;;4345528;33;20167;-84
2020/12/17 03:06:20;;;;;;;12.43;9.85;;;;;;;;;;4333496;33;20155;-83
2020/12/17 03:08:46;;;;;;;14.30;10.27;;;;;;;;;;4333210;33;20674;-83
2020/12/17 03:11:14;;;;;;;14.85;10.13;;;;;;;;;;4324903;33;20186;-83
2020/12/17 03:13:39;;;;;;;15.73;10.73;;;;;;;;;;4330646;33;20688;-82
2020/12/17 03:16:04;;;;;;;16.70;10.60;;;;;;;;;;4345325;33;20159;-82
2020/12/17 03:18:33;;;;;;;18.98;11.70;;;;;;;;;;4346426;33;20135;-82
2020/12/17 03:20:58;;;;;;;16.23;10.57;;;;;;;;;;4345582;33;20153;-82
2020/12/17 03:23:23;;;;;;;16.85;10.52;;;;;;;;;;4330446;33;20160;-83
2020/12/17 03:25:49;;;;;;;21.62;12.65;;;;;;;;;;4330799;33;20218;-84
2020/12/17 03:28:14;;;;;;;20.02;12.93;;;;;;;;;;4346319;33;20173;-82
2020/12/17 03:30:40;;;;;;;20.25;13.38;;;;;;;;;;4330308;33;20156;-83
2020/12/17 03:33:05;;;;;;;20.52;12.52;;;;;;;;;;4332253;33;20214;-83
2020/12/17 03:35:30;;;;;;;21.00;13.23;;;;;;;;;;4345931;33;20136;-83
2020/12/17 03:37:58;;;;;;;21.75;14.10;;;;;;;;;;4331110;33;20183;-83
2020/12/17 03:40:26;;;;;;;21.75;12.73;;;;;;;;;;4330348;33;20219;-82
2020/12/17 03:42:52;;;;;;;20.67;12.98;;;;;;;;;;4330604;33;20268;-83
2020/12/17 03:45:17;;;;;;;24.80;14.77;;;;;;;;;;4346664;33;20206;-83
2020/12/17 03:47:42;;;;;;;22.62;14.82;;;;;;;;;;4346276;33;20131;-83
2020/12/17 03:50:08;;;;;;;24.27;15.07;;;;;;;;;;4346327;33;20170;-83
2020/12/17 03:52:33;;;;;;;25.48;15.70;;;;;;;;;;4330301;33;20152;-82
2020/12/17 03:54:59;;;;;;;28.45;17.37;;;;;;;;;;4331134;33;20185;-82
2020/12/17 03:57:32;;;;;;;23.60;15.15;;;;;;;;;;4329981;33;20151;-82
2020/12/17 03:59:57;;;;;;;25.98;15.45;;;;;;;;;;4331578;33;20202;-83
2020/12/17 04:02:25;;;;;;;23.92;15.45;;;;;;;;;;4330205;33;20156;-83
2020/12/17 04:04:50;;;;;;;23.70;15.52;;;;;;;;;;4330304;33;20193;-82
2020/12/17 04:07:15;;;;;;;23.52;15.02;;;;;;;;;;4344570;33;20190;-82
2020/12/17 04:09:41;;;;;;;25.10;15.65;;;;;;;;;;4344663;33;20185;-83
2020/12/17 04:12:06;;;;;;;22.45;15.00;;;;;;;;;;4332064;33;20191;-81
2020/12/17 04:14:32;;;;;;;22.52;14.93;;;;;;;;;;4345950;33;20607;-82
2020/12/17 04:16:57;;;;;;;22.37;14.93;;;;;;;;;;4330904;33;20209;-82
2020/12/17 04:19:22;;;;;;;25.95;17.25;;;;;;;;;;4345529;33;20131;-82
2020/12/17 04:21:56;;;;;;;26.95;15.68;;;;;;;;;;4329903;33;20212;-82
2020/12/17 04:24:24;;;;;;;27.13;18.05;;;;;;;;;;4331882;33;20221;-82
2020/12/17 04:26:50;;;;;;;27.98;17.58;;;;;;;;;;4331786;33;20155;-82
2020/12/17 04:29:18;;;;;;;26.58;16.60;;;;;;;;;;4332635;33;20151;-82
2020/12/17 04:31:43;;;;;;;23.52;15.15;;;;;;;;;;4345428;33;20209;-81
2020/12/17 04:34:12;;;;;;;25.62;17.00;;;;;;;;;;4331840;33;20155;-81
2020/12/17 04:36:37;;;;;;;27.27;16.90;;;;;;;;;;4331767;33;20187;-82
2020/12/17 04:39:03;;;;;;;28.77;17.55;;;;;;;;;;4331865;33;20159;-82
2020/12/17 04:41:30;;;;;;;26.37;16.45;;;;;;;;;;4344075;33;20194;-81
2020/12/17 04:43:55;;;;;;;25.50;16.83;;;;;;;;;;4345870;33;20136;-83
2020/12/17 04:46:20;;;;;;;25.58;17.05;;;;;;;;;;4332125;33;20170;-82
2020/12/17 04:48:46;;;;;;;29.98;18.85;;;;;;;;;;4332391;33;20191;-84
2020/12/17 04:51:12;;;;;;;24.23;16.60;;;;;;;;;;4329247;33;20617;-83
2020/12/17 04:53:38;;;;;;;24.90;16.50;;;;;;;;;;4328485;33;20229;-83
2020/12/17 04:56:03;;;;;;;26.87;17.17;;;;;;;;;;4343871;33;20581;-82
2020/12/17 04:58:31;;;;;;;26.75;16.83;;;;;;;;;;4344916;33;20135;-82
2020/12/17 05:00:56;;;;;;;28.40;18.67;;;;;;;;;;4330201;33;20156;-84
2020/12/17 05:03:22;;;;;;;28.80;18.70;;;;;;;;;;4328608;33;20234;-82
2020/12/17 05:05:51;;;;;;;32.50;18.75;;;;;;;;;;4329120;33;20155;-84
2020/12/17 05:08:17;;;;;;;36.58;21.90;;;;;;;;;;4329885;33;20533;-84
2020/12/17 05:10:43;;;;;;;31.40;20.98;;;;;;;;;;4342989;33;20550;-83
2020/12/17 05:13:08;;;;;;;33.65;20.62;;;;;;;;;;4343856;33;20190;-82
2020/12/17 05:15:37;;;;;;;31.58;20.83;;;;;;;;;;4344367;33;20217;-83
2020/12/17 05:18:02;;;;;;;33.47;20.60;;;;;;;;;;4331220;33;20160;-82
2020/12/17 05:20:30;;;;;;;34.08;21.37;;;;;;;;;;4345327;33;20146;-84
2020/12/17 05:22:55;;;;;;;35.42;22.20;;;;;;;;;;4344680;33;20533;-84
2020/12/17 05:25:20;;;;;;;36.17;22.55;;;;;;;;;;4331283;33;20167;-82
2020/12/17 05:27:48;;;;;;;32.55;20.88;;;;;;;;;;4331378;33;20261;-82
2020/12/17 05:30:13;;;;;;;32.90;21.60;;;;;;;;;;4328999;33;20217;-82
2020/12/17 05:32:43;;;;;;;29.30;19.80;;;;;;;;;;4341671;33;20136;-83
2020/12/17 05:35:13;;;;;;;31.23;19.15;;;;;;;;;;4331663;33;20238;-84
2020/12/17 05:37:41;;;;;;;29.75;19.80;;;;;;;;;;4331566;33;20229;-84
2020/12/17 05:40:06;;;;;;;31.20;20.90;;;;;;;;;;4331405;33;20191;-84
2020/12/17 05:42:32;;;;;;;31.83;20.10;;;;;;;;;;4343638;33;20217;-84
2020/12/17 05:44:57;;;;;;;28.65;18.85;;;;;;;;;;4346273;33;20147;-84
2020/12/17 05:47:25;;;;;;;30.88;18.98;;;;;;;;;;4334215;33;20151;-83
2020/12/17 05:49:55;;;;;;;28.17;17.98;;;;;;;;;;4334194;33;20170;-84
2020/12/17 05:52:21;;;;;;;28.50;18.67;;;;;;;;;;4334203;33;20155;-85
2020/12/17 05:54:53;;;;;;;28.42;18.08;;;;;;;;;;4334504;33;20206;-84
2020/12/17 05:57:21;;;;;;;25.25;16.33;;;;;;;;;;4346506;33;20656;-85
2020/12/17 06:00:13;;;;;;;26.60;16.48;;;;;;;;;;4334208;33;20214;-84
2020/12/17 06:02:38;;;;;;;23.75;15.38;;;;;;;;;;4319089;33;20156;-85
2020/12/17 06:05:07;;;;;;;23.10;14.00;;;;;;;;;;4347624;33;20556;-85
2020/12/17 06:07:48;;;;;;;20.35;13.60;;;;;;;;;;4348100;33;20552;-84
2020/12/17 06:10:24;;;;;;;18.60;12.00;;;;;;;;;;4334496;33;20190;-85
2020/12/17 06:12:50;;;;;;;19.87;13.40;;;;;;;;;;4334329;33;20605;-85
2020/12/17 06:15:19;;;;;;;19.08;12.65;;;;;;;;;;4333819;33;20217;-84
2020/12/17 06:17:48;;;;;;;19.33;13.25;;;;;;;;;;4333967;33;20174;-84
2020/12/17 06:20:17;;;;;;;18.77;13.02;;;;;;;;;;4348131;33;20488;-85
2020/12/17 06:22:50;;;;;;;22.65;14.87;;;;;;;;;;4346256;33;20163;-85
2020/12/17 06:25:16;;;;;;;20.73;13.88;;;;;;;;;;4333784;33;20148;-85
2020/12/17 06:27:51;;;;;;;23.35;14.70;;;;;;;;;;4347588;33;20178;-84
2020/12/17 06:30:19;;;;;;;21.83;15.23;;;;;;;;;;4334259;33;20178;-84
2020/12/17 06:32:44;;;;;;;24.73;14.77;;;;;;;;;;4334422;33;20177;-84
2020/12/17 06:35:17;;;;;;;24.40;16.83;;;;;;;;;;4347232;33;20139;-82
2020/12/17 06:37:46;;;;;;;27.40;17.98;;;;;;;;;;4350130;33;20132;-81
2020/12/17 06:40:11;;;;;;;28.90;18.37;;;;;;;;;;4336221;33;20178;-82
2020/12/17 06:42:37;;;;;;;27.30;17.98;;;;;;;;;;4333693;33;20187;-84
2020/12/17 06:45:03;;;;;;;29.55;18.60;;;;;;;;;;4333703;33;20242;-83
2020/12/17 06:47:29;;;;;;;29.20;18.05;;;;;;;;;;4345784;33;20225;-85
2020/12/17 06:49:55;;;;;;;31.62;19.45;;;;;;;;;;4333808;33;20171;-84
2020/12/17 06:52:20;;;;;;;30.62;17.87;;;;;;;;;;4346718;33;20139;-83
2020/12/17 06:54:55;;;;;;;30.70;19.25;;;;;;;;;;4333718;33;20177;-83
2020/12/17 06:57:23;;;;;;;29.52;19.15;;;;;;;;;;4346298;33;20210;-83
2020/12/17 07:00:08;;;;;;;29.55;19.05;;;;;;;;;;4345582;33;20250;-83
2020/12/17 07:02:43;;;;;;;29.50;18.15;;;;;;;;;;4342236;33;20468;-82
2020/12/17 07:05:27;;;;;;;28.77;17.98;;;;;;;;;;4332964;33;20166;-82
2020/12/17 07:07:52;;;;;;;26.87;17.77;;;;;;;;;;4332501;33;20167;-82
2020/12/17 07:10:25;;;;;;;27.45;16.62;;;;;;;;;;4333051;33;20148;-83
2020/12/17 07:12:50;;;;;;;26.08;17.08;;;;;;;;;;4332933;33;20234;-82
2020/12/17 07:15:30;;;;;;;33.10;18.08;;;;;;;;;;4346601;33;20139;-83
2020/12/17 07:18:14;;;;;;;26.58;16.80;;;;;;;;;;4345297;33;20181;-83
2020/12/17 07:20:43;;;;;;;29.40;18.75;;;;;;;;;;4332663;33;20159;-84
2020/12/17 07:23:09;;;;;;;27.40;18.48;;;;;;;;;;4332934;33;20178;-82
2020/12/17 07:25:39;;;;;;;29.87;19.27;;;;;;;;;;4332786;33;20182;-81
2020/12/17 07:28:07;;;;;;;30.33;19.08;;;;;;;;;;4332818;33;20155;-82
2020/12/17 07:30:33;;;;;;;33.58;21.05;;;;;;;;;;4332964;33;20159;-82
2020/12/17 07:32:58;;;;;;;32.63;19.77;;;;;;;;;;4332679;33;20238;-83
2020/12/17 07:35:28;;;;;;;30.27;20.08;;;;;;;;;;4332702;33;20170;-83
2020/12/17 07:37:57;;;;;;;30.27;20.35;;;;;;;;;;4332712;33;20151;-85
2020/12/17 07:40:55;;;;;;;35.60;21.75;;;;;;;;;;4332574;33;20222;-83
2020/12/17 07:43:21;;;;;;;31.60;20.37;;;;;;;;;;4328525;33;20179;-84
2020/12/17 07:45:47;;;;;;;35.38;20.85;;;;;;;;;;4332457;33;20202;-84
2020/12/17 07:48:31;;;;;;;32.00;20.08;;;;;;;;;;4332539;33;20483;-84
2020/12/17 07:51:05;;;;;;;31.25;20.75;;;;;;;;;;4332258;33;20199;-83
2020/12/17 07:53:32;;;;;;;35.45;21.10;;;;;;;;;;4331893;33;20626;-84
2020/12/17 07:55:57;;;;;;;32.67;19.17;;;;;;;;;;4329750;33;20198;-83
2020/12/17 07:58:25;;;;;;;31.00;21.30;;;;;;;;;;4331570;33;20528;-83
2020/12/17 08:00:58;;;;;;;29.17;20.42;;;;;;;;;;4332773;33;20578;-83
2020/12/17 08:03:29;;;;;;;30.75;20.62;;;;;;;;;;4349067;33;20147;-83
2020/12/17 08:06:09;;;;;;;32.65;21.55;;;;;;;;;;4346867;33;20300;-84
2020/12/17 08:08:37;;;;;;;34.30;20.90;;;;;;;;;;4346334;33;20151;-84
2020/12/17 08:11:05;;;;;;;30.33;18.40;;;;;;;;;;4347159;33;20155;-81
2020/12/17 08:13:31;;;;;;;29.77;18.83;;;;;;;;;;4347056;33;20155;-83
2020/12/17 08:15:57;;;;;;;29.42;17.55;;;;;;;;;;4346628;33;20236;-82
2020/12/17 08:18:29;;;;;;;29.05;17.05;;;;;;;;;;4347296;33;20193;-82
2020/12/17 08:21:05;;;;;;;25.67;16.62;;;;;;;;;;4347247;33;20174;-82
2020/12/17 08:23:31;;;;;;;27.42;16.52;;;;;;;;;;4346619;33;20209;-83
2020/12/17 08:25:59;;;;;;;25.67;16.52;;;;;;;;;;4347182;33;20285;-82
2020/12/17 08:28:30;;;;;;;25.30;14.48;;;;;;;;;;4347089;33;20155;-82
2020/12/17 08:31:02;;;;;;;27.02;15.25;;;;;;;;;;4347022;33;20147;-83
2020/12/17 08:33:28;;;;;;;23.58;14.80;;;;;;;;;;4347069;33;20250;-84
2020/12/17 08:36:02;;;;;;;22.92;12.93;;;;;;;;;;4360533;32;20155;-84
2020/12/17 08:38:28;;;;;;;18.85;12.20;;;;;;;;;;4347156;33;20196;-85
2020/12/17 08:41:02;;;;;;;20.00;13.10;;;;;;;;;;4347014;33;20171;-85
2020/12/17 08:43:29;;;;;;;22.85;12.85;;;;;;;;;;4346486;33;20185;-87
2020/12/17 08:46:00;;;;;;;21.87;12.15;;;;;;;;;;4346664;33;20166;-86
2020/12/17 08:48:25;;;;;;;16.55;10.65;;;;;;;;;;4346888;33;20178;-86
2020/12/17 08:50:52;;;;;;;16.90;10.57;;;;;;;;;;4346978;33;20159;-86
2020/12/17 08:53:27;;;;;;;16.85;10.77;;;;;;;;;;4360322;33;20153;-86
2020/12/17 08:56:06;;;;;;;17.75;10.07;;;;;;;;;;4346283;33;20583;-86
2020/12/17 08:58:42;;;;;;;15.65;8.60;;;;;;;;;;4346868;33;20186;-87
2020/12/17 09:01:35;;;;;;;15.32;9.93;;;;;;;;;;4347057;33;20217;-87
2020/12/17 09:04:08;;;;;;;18.85;8.23;;;;;;;;;;4346901;33;20178;-86
2020/12/17 09:06:39;;;;;;;16.35;9.02;;;;;;;;;;4346940;33;20192;-88
2020/12/17 09:12:55;;;;;;;17.75;8.23;;;;;;;;;;4333968;33;20234;-89
2020/12/17 09:16:02;;;;;;;17.45;8.48;;;;;;;;;;4347335;33;20614;-89
2020/12/17 09:18:36;;;;;;;16.40;8.63;;;;;;;;;;4311073;33;20243;-86
2020/12/17 09:21:35;;;;;;;;;;;;;;;;;;;;;
2020/12/17 09:24:22;;;;;;;13.35;8.00;;;;;;;;;;4362117;33;20151;-87
2020/12/17 09:27:01;;;;;;;15.20;8.02;;;;;;;;;;4346793;33;20209;-90
2020/12/17 09:29:42;;;;;;;16.50;7.37;;;;;;;;;;4346298;33;20154;-88
2020/12/17 09:32:28;;;;;;;18.77;7.85;;;;;;;;;;4347562;33;20171;-91
2020/12/17 09:35:24;;;;;;;16.35;7.53;;;;;;;;;;4359962;33;20158;-90
2020/12/17 09:38:12;;;;;;;16.75;7.87;;;;;;;;;;4357678;33;20171;-90
2020/12/17 09:40:48;;;;;;;15.00;7.43;;;;;;;;;;4332679;33;20210;-89
2020/12/17 09:43:22;;;;;;;14.85;6.90;;;;;;;;;;4339723;33;20167;-88
2020/12/17 09:45:58;;;;;;;13.52;6.97;;;;;;;;;;4346990;33;20665;-89
2020/12/17 09:48:48;;;;;;;;;;;;;;;;;;;;;
2020/12/17 09:51:44;;;;;;;13.82;7.55;;;;;;;;;;4366021;33;20163;-90
2020/12/17 09:54:21;;;;;;;16.75;7.35;;;;;;;;;;4352862;33;20631;-89
2020/12/17 09:57:21;;;;;;;20.23;6.82;;;;;;;;;;4354268;33;20184;-89
2020/12/17 10:00:00;;;;;;;12.45;6.68;;;;;;;;;;4308513;33;20215;-88
2020/12/17 10:02:40;;;;;;;12.07;6.10;;;;;;;;;;4352370;33;20173;-89
2020/12/17 10:05:20;;;;;;;16.05;6.62;;;;;;;;;;4352350;33;20178;-88
2020/12/17 10:13:52;;;;;;;14.07;5.87;;;;;;;;;;4366526;33;20195;-92
2020/12/17 10:16:49;;;;;;;12.57;6.10;;;;;;;;;;4350342;33;20217;-92
2020/12/17 10:22:29;;;;;;;12.65;5.57;;;;;;;;;;4367078;33;20195;-92
2020/12/17 10:24:57;;;;;;;13.00;6.05;;;;;;;;;;4356865;33;20154;-88
2020/12/17 10:27:34;;;;;;;17.12;6.55;;;;;;;;;;4356672;33;20186;-90
2020/12/17 10:30:05;;;;;;;11.88;6.30;;;;;;;;;;4367995;32;20277;-90
2020/12/17 10:33:15;;;;;;;14.25;5.30;;;;;;;;;;4355236;33;20175;-90
2020/12/17 10:36:01;;;;;;;11.15;5.72;;;;;;;;;;4365897;32;20178;-89
2020/12/17 10:39:04;;;;;;;10.75;5.22;;;;;;;;;;4349577;33;20190;-91
2020/12/17 10:41:43;;;;;;;12.80;5.70;;;;;;;;;;4346578;33;20215;-89
2020/12/17 10:44:11;;;;;;;16.50;6.20;;;;;;;;;;4351537;33;20163;-91
2020/12/17 10:46:57;;;;;;;12.00;6.12;;;;;;;;;;4351376;33;20592;-90
2020/12/17 10:49:30;;;;;;;12.93;5.82;;;;;;;;;;4350572;33;20155;-91
2020/12/17 10:52:21;;;;;;;16.25;6.00;;;;;;;;;;4351966;33;20167;-92
2020/12/17 10:55:02;;;;;;;;;;;;;;;;;;;;;
2020/12/17 10:58:06;;;;;;;13.07;6.00;;;;;;;;;;4364169;32;20178;-91
2020/12/17 11:00:40;;;;;;;9.68;5.93;;;;;;;;;;4346287;33;20148;-91
2020/12/17 11:06:15;;;;;;;18.17;6.30;;;;;;;;;;4335270;33;20242;-90
2020/12/17 11:09:11;;;;;;;13.43;5.25;;;;;;;;;;4331939;33;20174;-89
2020/12/17 11:11:52;;;;;;;12.85;5.57;;;;;;;;;;4335378;33;20151;-93
2020/12/17 11:14:19;;;;;;;14.68;5.82;;;;;;;;;;4347315;33;20255;-86
2020/12/17 11:16:44;;;;;;;17.55;6.10;;;;;;;;;;4346701;33;20159;-83
2020/12/17 11:19:09;;;;;;;17.08;6.32;;;;;;;;;;4346667;33;20297;-85
2020/12/17 11:21:35;;;;;;;13.32;5.37;;;;;;;;;;4347301;33;20238;-82
2020/12/17 11:24:01;;;;;;;16.33;6.90;;;;;;;;;;4359814;32;20131;-86
2020/12/17 11:26:27;;;;;;;15.75;5.32;;;;;;;;;;4362522;32;20480;-84
2020/12/17 11:28:58;;;;;;;18.73;6.15;;;;;;;;;;4376533;32;20127;-84
2020/12/17 11:31:24;;;;;;;14.77;6.35;;;;;;;;;;4362733;32;20230;-83
2020/12/17 11:33:50;;;;;;;21.10;6.43;;;;;;;;;;4375107;32;20208;-85
2020/12/17 11:36:21;;;;;;;15.32;5.70;;;;;;;;;;4362338;32;20155;-85
2020/12/17 11:38:48;;;;;;;11.65;5.22;;;;;;;;;;4363055;32;20154;-84
2020/12/17 11:41:13;;;;;;;21.40;5.68;;;;;;;;;;4348014;32;20217;-84
2020/12/17 11:43:38;;;;;;;16.92;5.45;;;;;;;;;;4345930;33;20131;-86
2020/12/17 11:46:04;;;;;;;15.50;5.53;;;;;;;;;;4346510;33;20128;-84
2020/12/17 11:48:38;;;;;;;18.87;5.45;;;;;;;;;;4336555;33;20217;-85
2020/12/17 11:51:03;;;;;;;18.55;5.40;;;;;;;;;;4347373;33;20154;-85
2020/12/17 11:53:32;;;;;;;21.97;6.30;;;;;;;;;;4344187;33;20181;-86
2020/12/17 11:56:00;;;;;;;19.02;5.85;;;;;;;;;;4341807;33;20299;-86
2020/12/17 11:58:31;;;;;;;16.40;6.00;;;;;;;;;;4347593;33;20220;-87
2020/12/17 12:01:07;;;;;;;15.50;5.15;;;;;;;;;;4347376;33;20241;-87
2020/12/17 12:03:36;;;;;;;21.85;6.25;;;;;;;;;;4348320;33;20147;-86
2020/12/17 12:06:05;;;;;;;19.05;5.32;;;;;;;;;;4358940;32;20639;-85
2020/12/17 12:08:34;;;;;;;16.77;5.95;;;;;;;;;;4347203;33;20189;-87
2020/12/17 12:11:10;;;;;;;15.52;5.25;;;;;;;;;;4347373;33;20197;-89
2020/12/17 12:13:40;;;;;;;18.92;5.28;;;;;;;;;;4347960;33;20242;-88
2020/12/17 12:16:16;;;;;;;16.60;6.03;;;;;;;;;;4347533;33;20170;-89
2020/12/17 12:18:55;;;;;;;25.02;5.75;;;;;;;;;;4347925;32;20163;-90
2020/12/17 12:21:41;;;;;;;16.67;5.20;;;;;;;;;;4347928;33;20286;-90
2020/12/17 12:24:12;;;;;;;15.23;5.07;;;;;;;;;;4347967;33;20163;-89
2020/12/17 12:26:43;;;;;;;12.50;4.68;;;;;;;;;;4347106;33;20190;-91
2020/12/17 12:29:20;;;;;;;13.88;4.95;;;;;;;;;;4347702;33;20162;-90
2020/12/17 12:31:57;;;;;;;15.15;4.93;;;;;;;;;;4348210;33;20249;-91
2020/12/17 12:34:36;;;;;;;15.23;5.60;;;;;;;;;;4347790;33;20600;-91
2020/12/17 12:37:15;;;;;;;17.10;5.20;;;;;;;;;;4348199;33;20159;-90
2020/12/17 12:39:59;;;;;;;14.65;4.68;;;;;;;;;;4361726;32;20184;-91
2020/12/17 12:42:30;;;;;;;12.07;4.50;;;;;;;;;;4348149;33;20486;-92
2020/12/17 12:45:09;;;;;;;15.40;5.35;;;;;;;;;;4347749;33;20552;-91
2020/12/17 12:47:40;;;;;;;15.48;5.40;;;;;;;;;;4346904;33;20167;-91
2020/12/17 12:50:09;;;;;;;15.77;5.47;;;;;;;;;;4348758;33;20155;-90
2020/12/17 12:52:34;;;;;;;17.15;5.12;;;;;;;;;;4347561;33;20151;-88
2020/12/17 12:54:59;;;;;;;9.05;4.07;;;;;;;;;;4360730;32;20151;-90
2020/12/17 12:57:33;;;;;;;9.23;4.12;;;;;;;;;;4347813;33;20150;-90
2020/12/17 13:00:04;;;;;;;11.98;4.10;;;;;;;;;;4348098;33;20143;-90
2020/12/17 13:02:29;;;;;;;14.45;4.75;;;;;;;;;;4347784;33;20550;-92
2020/12/17 13:05:09;;;;;;;17.87;5.53;;;;;;;;;;4351565;33;20213;-92
2020/12/17 13:07:40;;;;;;;15.85;4.62;;;;;;;;;;4354781;33;20710;-90
2020/12/17 13:10:14;;;;;;;16.92;4.95;;;;;;;;;;4354325;33;20162;-92
2020/12/17 13:12:58;;;;;;;16.25;4.90;;;;;;;;;;4358959;32;20177;-90
2020/12/17 13:15:29;;;;;;;14.13;4.62;;;;;;;;;;4367593;32;20231;-90
2020/12/17 13:18:16;;;;;;;18.25;5.15;;;;;;;;;;4362807;32;20233;-91
2020/12/17 13:20:58;;;;;;;15.85;5.75;;;;;;;;;;4362918;32;20209;-91
2020/12/17 13:23:56;;;;;;;15.15;5.45;;;;;;;;;;4362465;32;20168;-89
2020/12/17 13:27:09;;;;;;;16.27;5.10;;;;;;;;;;4362398;32;20242;-90
2020/12/17 13:29:28;;;;;;;16.60;5.35;;;;;;;;;;4368282;32;20193;-89
2020/12/17 13:32:02;;;;;;;15.45;5.40;;;;;;;;;;4352722;33;20163;-90
2020/12/17 13:34:41;;;;;;;10.65;4.68;;;;;;;;;;4348951;33;20636;-90
2020/12/17 13:37:21;;;;;;;10.15;4.40;;;;;;;;;;4346981;33;21028;-91
2020/12/17 13:40:12;;;;;;;11.80;5.10;;;;;;;;;;4347361;33;20158;-91
2020/12/17 13:42:48;;;;;;;10.48;4.65;;;;;;;;;;4347551;33;20229;-90
2020/12/17 13:45:28;;;;;;;12.23;4.80;;;;;;;;;;4342897;33;20155;-91
2020/12/17 13:48:10;;;;;;;12.10;4.93;;;;;;;;;;4347516;33;20250;-90
2020/12/17 13:51:07;;;;;;;14.77;5.35;;;;;;;;;;4346836;33;20170;-89
2020/12/17 13:53:51;;;;;;;;;;;;;;;;;;;;;
2020/12/17 13:57:00;;;;;;;;;;;;;;;;;;;;;
2020/12/17 13:59:57;;;;;;;14.05;5.22;;;;;;;;;;4325215;33;20185;-91
2020/12/17 14:02:30;;;;;;;14.25;4.78;;;;;;;;;;4360061;33;20558;-91
2020/12/17 14:05:32;;;;;;;;;;;;;;;;;;;;;
2020/12/17 14:08:34;;;;;;;9.88;4.03;;;;;;;;;;4362868;32;20186;-91
2020/12/17 14:14:13;;;;;;;13.07;4.65;;;;;;;;;;4363488;33;20152;-92
2020/12/17 14:16:53;;;;;;;10.77;4.90;;;;;;;;;;4358130;33;20260;-91
2020/12/17 14:19:29;;;;;;;13.73;4.90;;;;;;;;;;4354584;33;20519;-91
2020/12/17 14:22:03;;;;;;;17.67;5.93;;;;;;;;;;4353730;33;20221;-92
2020/12/17 14:25:00;;;;;;;11.40;5.18;;;;;;;;;;4352831;33;20182;-92
2020/12/17 14:27:41;;;;;;;13.27;5.70;;;;;;;;;;4348667;33;20208;-91
2020/12/17 14:30:21;;;;;;;17.05;5.35;;;;;;;;;;4351328;32;20167;-90
2020/12/17 14:32:46;;;;;;;11.40;4.55;;;;;;;;;;4351542;33;20662;-89
2020/12/17 14:35:25;;;;;;;;;;;;;;;;;;;;;
2020/12/17 14:37:59;;;;;;;11.60;4.32;;;;;;;;;;4366700;32;20158;-91
2020/12/17 14:40:39;;;;;;;10.90;4.68;;;;;;;;;;4349052;33;20193;-92
2020/12/17 14:43:33;;;;;;;;;;;;;;;;;;;;;
2020/12/17 14:46:02;;;;;;;11.10;5.03;;;;;;;;;;4303914;33;20148;-91
2020/12/17 14:48:31;;;;;;;13.70;4.85;;;;;;;;;;4337349;33;20634;-91
2020/12/17 14:51:15;;;;;;;;;;;;;;;;;;;;;
2020/12/17 14:54:08;;;;;;;11.38;5.05;;;;;;;;;;4379722;32;20139;-92
2020/12/17 14:57:00;;;;;;;13.88;5.25;;;;;;;;;;4359481;32;20185;-92
2020/12/17 14:59:33;;;;;;;10.95;5.07;;;;;;;;;;4375618;32;20166;-93
2020/12/17 15:02:31;;;;;;;13.93;4.45;;;;;;;;;;4366580;32;20241;-92
2020/12/17 15:08:50;;;;;;;;;;;;;;;;;;;;;
2020/12/17 15:27:11;;;;;;;13.57;5.10;;;;;;;;;;4277563;33;20203;-88
2020/12/17 15:29:49;;;;;;;11.77;4.63;;;;;;;;;;4283863;33;20244;-90
2020/12/17 15:32:14;;;;;;;18.30;5.50;;;;;;;;;;4291295;33;20228;-94
2020/12/17 15:35:17;;;;;;;10.07;4.93;;;;;;;;;;4289974;33;20644;-90
2020/12/17 15:37:56;;;;;;;12.00;5.78;;;;;;;;;;4299149;33;20229;-89
2020/12/17 15:40:42;;;;;;;11.50;5.10;;;;;;;;;;4355015;33;20177;-90
2020/12/17 15:43:22;;;;;;;10.43;5.50;;;;;;;;;;4353421;33;20178;-93
2020/12/17 15:45:57;;;;;;;14.95;5.55;;;;;;;;;;4351690;33;20158;-90
2020/12/17 15:48:28;;;;;;;12.95;5.45;;;;;;;;;;4353291;33;20210;-90
2020/12/17 15:51:09;;;;;;;15.80;5.55;;;;;;;;;;4352845;33;20151;-91
2020/12/17 15:53:44;;;;;;;12.23;5.90;;;;;;;;;;4352344;33;20167;-91